Lyuban', Russia
Current Conditions -  °F | °C
As of 11:00 PM on Thursday 18 Dec 2014 (Local Time) from ULLI Reporting Station
Overcast Overcast  
Wind Chill: 26°   Ceiling: 3000
Heat Index: 32°   Visibility: 6mi
Dew Point: 30°   Wind: 7mph
Humidity: 93%   Direction: 140°SE
Pressure: 29.53"   Gusts: NA
Location:  59.35°N, 31.25°E
Report Text: ULLI 182000Z 14003MPS 9999 BKN030 OVC066 M00/M01 Q1000 28//////78290050 NOSIG
Loading
Personal Weather Stations






























Interactive Weather Map New forecast layout! Learn more

10-Day Weather Forecast

Advertisements
Track Severe Weather on mobile